Nashville, Tennessee
Traffic Map
Current Weather Conditions
Nashville, Tennessee
Scattered Clouds
Scattered Clouds
17°
Feels Like: 17°
Wind Chill: 17° Ceiling: Unl
Heat Index: 17° Visibility: 10mi
Dew Point: Wind: 3mph
Humidity: 52% Direction: 330° (NNW)
Pressure: 30.08in Gusts: 0mph
Raw Report DataKBNA 242353Z 33003KT 10SM FEW150 SCT250 17/07 A3008 RMK AO2 SLP185 T01720072 10222 20172 53006
Traffic Incident Summary
Active as of:
Severity:
Category:
InformationThere was an issue retrieving the traffic information for this location. Please try a different location or try again shortly.
Advertisements
Track Severe Weather on mobile